Observations for VALLEY RAF, United Kingdom (EGOV)

EGOV 130850Z 07006KT 9999 FEW020 SCT060 BKN110 05/M01 Q1012 BLU NOSIG   
EGOV 130750Z 15013KT CAVOK 06/M02 Q1011 BLU NOSIG   
EGOV 130650Z 13018KT CAVOK 06/M02 Q1010 BLU NOSIG   
EGOV 130550Z AUTO 13017KT 9999 OVC060/// 06/M02 Q1010   
EGOV 130450Z AUTO 13016KT 9999 BKN060/// BKN180/// 06/M01 Q1010 
EGOV 130350Z AUTO 12013KT 9999 BKN060/// BKN170/// 06/M02 Q1010 
EGOV 130250Z AUTO 12015KT 9999 OVC060/// 06/M02 Q1010   
EGOV 130150Z AUTO 14019KT 9999 OVC050/// 06/M01 Q1011   
EGOV 130050Z AUTO 14016KT 9999 SCT060/// BKN210/// 06/M01 Q1011 
EGOV 122350Z AUTO 13016KT 9999 OVC060/// 06/00 Q1011
EGOV 122250Z AUTO 12014KT 9999 BKN060/// 06/01 Q1011
EGOV 122150Z AUTO 14020KT 9999 FEW070/// BKN090/// 07/01 Q1012  
EGOV 122050Z AUTO 14019KT 9999 NCD 07/02 Q1012  
EGOV 121950Z AUTO 08005KT 9999 NCD 06/02 Q1012  
EGOV 121850Z AUTO 12012KT 9999 NCD 07/02 Q1013  
EGOV 121750Z 13013KT CAVOK 08/04 Q1013 BLU NOSIG
EGOV 121650Z 14015KT 9999 SCT040 BKN050 09/04 Q1014 BLU NOSIG   
EGOV 121550Z 14015KT 9999 FEW035 BKN050 09/05 Q1014 BLU NOSIG   
EGOV 121450Z 14016KT 9999 SCT026 BKN035 BKN050 09/05 Q1014 BLU TEMPO SCT024 WHT 
EGOV 121350Z 14017KT 9999 FEW023 BKN026 10/06 Q1014 BLU TEMPO BKN023 WHT
EGOV 121250Z 14012KT 9999 SCT023 BKN045 10/06 Q1015 WHT TEMPO FEW023 BLU
EGOV 121150Z 14014KT 9999 FEW023 BKN027 10/06 Q1016 BLU TEMPO SCT023 WHT
EGOV 121050Z 14013KT 9999 FEW023 BKN028 10/06 Q1016 BLU TEMPO SCT023 WHT
EGOV 121042Z 14013KT 9999 FEW023 BKN034 10/06 Q1016 BLU TEMPO SCT023 WHT
EGOV 121042Z 14013KT 9999 FEW023 BKN034 10/06 Q1016 BLU TEMPO SCT023 WHT
EGOV 120950Z 12007KT 9999 SCT022 BKN030 10/06 Q1016 WHT TEMPO FEW022 BLU
EGOV 120850Z 13010KT 9999 FEW022 BKN038 BKN048 10/05 Q1016 BLU TEMPO SCT022 WHT